Time;durP1;ratioP1;P1;durP2;ratioP2;P2;SDS_P1;SDS_P2;PMS_P1;PMS_P2;Temp;Humidity;BMP_temperature;BMP_pressure;BME280_temperature;BME280_humidity;BME280_pressure;Samples;Min_cycle;Max_cycle;Signal;HPM_P1;HPM_P2
2021/12/27 00:00:08;;;;;;;47.38;31.60;;;;;;;;;;5073293;28;20116;-79
2021/12/27 00:02:35;;;;;;;73.20;49.22;;;;;;;;;;5074422;28;20502;-77
2021/12/27 00:05:01;;;;;;;88.07;60.83;;;;;;;;;;5074529;28;20033;-77
2021/12/27 00:07:27;;;;;;;50.45;37.05;;;;;;;;;;5074252;28;20115;-80
2021/12/27 00:09:54;;;;;;;30.15;23.23;;;;;;;;;;5074398;28;20071;-77
2021/12/27 00:12:20;;;;;;;24.08;17.75;;;;;;;;;;5074169;28;20032;-76
2021/12/27 00:14:46;;;;;;;24.40;18.70;;;;;;;;;;5074310;28;20029;-82
2021/12/27 00:17:12;;;;;;;31.95;24.85;;;;;;;;;;5074298;28;20490;-77
2021/12/27 00:19:38;;;;;;;28.58;20.80;;;;;;;;;;5074018;28;20036;-81
2021/12/27 00:22:05;;;;;;;28.63;20.88;;;;;;;;;;5074305;28;20033;-81
2021/12/27 00:24:31;;;;;;;25.25;20.33;;;;;;;;;;5073619;28;20056;-81
2021/12/27 00:26:57;;;;;;;31.05;21.88;;;;;;;;;;5072837;28;20089;-78
2021/12/27 00:29:23;;;;;;;28.40;20.92;;;;;;;;;;5072596;28;20021;-77
2021/12/27 00:31:49;;;;;;;28.50;20.83;;;;;;;;;;5074005;28;20365;-78
2021/12/27 00:34:16;;;;;;;27.52;20.52;;;;;;;;;;5074002;28;20032;-80
2021/12/27 00:36:42;;;;;;;25.70;20.15;;;;;;;;;;5073753;28;20027;-79
2021/12/27 00:39:08;;;;;;;30.52;22.63;;;;;;;;;;5073704;28;20090;-78
2021/12/27 00:41:34;;;;;;;30.80;23.17;;;;;;;;;;5073579;28;20033;-78
2021/12/27 00:44:03;;;;;;;34.30;24.58;;;;;;;;;;5073971;28;20028;-80
2021/12/27 00:46:29;;;;;;;32.92;22.55;;;;;;;;;;5073607;28;20033;-77
2021/12/27 00:48:55;;;;;;;32.65;25.40;;;;;;;;;;5072470;28;20052;-80
2021/12/27 00:51:21;;;;;;;32.22;23.90;;;;;;;;;;5073581;28;20028;-77
2021/12/27 00:53:48;;;;;;;28.70;23.58;;;;;;;;;;5073494;28;20391;-78
2021/12/27 00:56:14;;;;;;;28.45;22.17;;;;;;;;;;5073427;28;20021;-76
2021/12/27 00:58:40;;;;;;;28.20;22.13;;;;;;;;;;5073135;28;20032;-79
2021/12/27 01:01:06;;;;;;;30.85;23.33;;;;;;;;;;5072276;28;20032;-82
2021/12/27 01:03:32;;;;;;;32.70;22.50;;;;;;;;;;5073033;28;20021;-75
2021/12/27 01:05:58;;;;;;;25.77;19.75;;;;;;;;;;5072641;28;20021;-78
2021/12/27 01:08:24;;;;;;;24.60;18.60;;;;;;;;;;5073272;28;20052;-79
2021/12/27 01:15:50;;;;;;;21.20;18.15;;;;;;;;;;5072850;28;20028;-82
2021/12/27 01:18:17;;;;;;;24.10;16.55;;;;;;;;;;5073035;28;20028;-78
2021/12/27 01:20:43;;;;;;;20.90;16.77;;;;;;;;;;5072725;28;20487;-77
2021/12/27 01:23:10;;;;;;;23.52;18.00;;;;;;;;;;5072960;28;20099;-75
2021/12/27 01:25:36;;;;;;;22.83;16.88;;;;;;;;;;5072706;28;20080;-82
2021/12/27 01:28:02;;;;;;;19.55;14.80;;;;;;;;;;5072910;28;20024;-80
2021/12/27 01:30:28;;;;;;;19.65;16.30;;;;;;;;;;5072823;28;20036;-75
2021/12/27 01:32:59;;;;;;;21.33;16.95;;;;;;;;;;5072762;28;20033;-81
2021/12/27 01:35:25;;;;;;;21.80;16.50;;;;;;;;;;5072828;28;20028;-77
2021/12/27 01:37:52;;;;;;;22.98;17.10;;;;;;;;;;5072531;28;20025;-81
2021/12/27 01:40:21;;;;;;;20.02;15.88;;;;;;;;;;5072631;28;20107;-80
2021/12/27 01:43:00;;;;;;;20.17;15.10;;;;;;;;;;5072299;28;20024;-79
2021/12/27 01:45:26;;;;;;;16.25;13.75;;;;;;;;;;5070978;28;20474;-79
2021/12/27 01:47:52;;;;;;;19.15;14.48;;;;;;;;;;5072430;28;20107;-80
2021/12/27 01:50:18;;;;;;;17.25;12.77;;;;;;;;;;5072390;28;20028;-75
2021/12/27 01:52:45;;;;;;;15.25;13.13;;;;;;;;;;5071021;28;20435;-80
2021/12/27 01:55:11;;;;;;;16.38;12.52;;;;;;;;;;5072497;28;20028;-77
2021/12/27 01:57:38;;;;;;;16.55;12.35;;;;;;;;;;5072287;28;20064;-83
2021/12/27 02:00:05;;;;;;;16.58;12.95;;;;;;;;;;5072559;28;20123;-76
2021/12/27 02:02:31;;;;;;;14.77;11.85;;;;;;;;;;5072100;28;20064;-81
2021/12/27 02:04:57;;;;;;;13.57;11.63;;;;;;;;;;5072394;28;20103;-79
2021/12/27 02:07:24;;;;;;;12.05;10.43;;;;;;;;;;5072273;28;20033;-80
2021/12/27 02:10:01;;;;;;;13.20;10.00;;;;;;;;;;5072190;28;20384;-77
2021/12/27 02:12:27;;;;;;;16.42;10.23;;;;;;;;;;5071038;28;20063;-76
2021/12/27 02:14:54;;;;;;;12.07;10.35;;;;;;;;;;5072228;28;20052;-76
2021/12/27 02:17:21;;;;;;;13.43;10.50;;;;;;;;;;5071924;28;20383;-75
2021/12/27 02:19:47;;;;;;;13.93;10.68;;;;;;;;;;5072128;28;20040;-76
2021/12/27 02:22:14;;;;;;;11.43;10.15;;;;;;;;;;5070947;28;20382;-77
2021/12/27 02:24:40;;;;;;;13.93;10.48;;;;;;;;;;5071845;28;20064;-79
2021/12/27 02:27:07;;;;;;;12.75;9.63;;;;;;;;;;5070995;28;20071;-78
2021/12/27 02:29:33;;;;;;;13.77;11.02;;;;;;;;;;5071959;28;20039;-78
2021/12/27 02:32:00;;;;;;;13.00;9.90;;;;;;;;;;5072225;28;20032;-79
2021/12/27 02:34:26;;;;;;;13.38;11.00;;;;;;;;;;5071782;28;20027;-75
2021/12/27 02:36:52;;;;;;;13.73;10.82;;;;;;;;;;5071927;28;20460;-79
2021/12/27 02:39:19;;;;;;;13.77;10.30;;;;;;;;;;5070767;28;20392;-80
2021/12/27 02:41:45;;;;;;;15.57;11.60;;;;;;;;;;5071931;28;20021;-79
2021/12/27 02:44:11;;;;;;;14.40;11.43;;;;;;;;;;5071977;28;20044;-79
2021/12/27 02:46:37;;;;;;;15.40;10.93;;;;;;;;;;5071824;28;20033;-80
2021/12/27 02:49:04;;;;;;;13.82;11.18;;;;;;;;;;5071968;28;20036;-80
2021/12/27 02:51:31;;;;;;;14.27;10.63;;;;;;;;;;5070541;28;20040;-77
2021/12/27 02:53:57;;;;;;;14.60;11.13;;;;;;;;;;5070640;28;20111;-75
2021/12/27 02:56:24;;;;;;;14.07;11.35;;;;;;;;;;5071951;28;20510;-79
2021/12/27 02:58:50;;;;;;;15.57;10.85;;;;;;;;;;5070375;28;20392;-81
2021/12/27 03:01:18;;;;;;;16.52;12.38;;;;;;;;;;5071853;28;20033;-77
2021/12/27 03:03:44;;;;;;;12.23;10.55;;;;;;;;;;5071653;28;20070;-79
2021/12/27 03:06:10;;;;;;;14.35;12.27;;;;;;;;;;5071766;28;20071;-77
2021/12/27 03:08:37;;;;;;;16.73;12.88;;;;;;;;;;5071551;28;20415;-79
2021/12/27 03:11:04;;;;;;;21.85;16.67;;;;;;;;;;5071698;28;20071;-80
2021/12/27 03:13:31;;;;;;;23.60;18.23;;;;;;;;;;5071654;28;20032;-80
2021/12/27 03:15:59;;;;;;;21.08;17.38;;;;;;;;;;5071807;28;20028;-79
2021/12/27 03:18:25;;;;;;;20.63;16.55;;;;;;;;;;5071642;28;20033;-76
2021/12/27 03:20:59;;;;;;;19.15;15.23;;;;;;;;;;5070232;28;20399;-80
2021/12/27 03:23:25;;;;;;;15.87;12.27;;;;;;;;;;5071257;28;20028;-79
2021/12/27 03:25:53;;;;;;;14.35;12.75;;;;;;;;;;5071579;28;20132;-81
2021/12/27 03:28:22;;;;;;;14.57;11.52;;;;;;;;;;5073204;28;20490;-79
2021/12/27 03:30:48;;;;;;;15.98;12.18;;;;;;;;;;5073840;28;20491;-78
2021/12/27 03:33:15;;;;;;;17.05;12.13;;;;;;;;;;5075146;28;20121;-80
2021/12/27 03:35:51;;;;;;;20.08;12.68;;;;;;;;;;5074968;28;20071;-79
2021/12/27 03:38:18;;;;;;;18.85;12.85;;;;;;;;;;5074734;28;20037;-79
2021/12/27 03:40:48;;;;;;;15.77;12.20;;;;;;;;;;5074973;28;20109;-80
2021/12/27 03:43:14;;;;;;;15.07;12.25;;;;;;;;;;5074828;28;20107;-81
2021/12/27 03:45:40;;;;;;;16.70;12.70;;;;;;;;;;5074911;28;20095;-76
2021/12/27 03:48:11;;;;;;;17.73;13.07;;;;;;;;;;5074821;28;20025;-77
2021/12/27 03:50:38;;;;;;;15.45;11.85;;;;;;;;;;5074884;28;20119;-77
2021/12/27 03:53:05;;;;;;;16.42;13.10;;;;;;;;;;5074681;28;20052;-76
2021/12/27 03:55:31;;;;;;;15.98;13.18;;;;;;;;;;5074572;28;20071;-78
2021/12/27 03:58:07;;;;;;;15.57;12.98;;;;;;;;;;5072673;28;20055;-75
2021/12/27 04:00:47;;;;;;;17.35;13.65;;;;;;;;;;5074108;28;20518;-80
2021/12/27 04:03:14;;;;;;;16.73;12.20;;;;;;;;;;5072273;28;20093;-77
2021/12/27 04:05:40;;;;;;;14.80;12.50;;;;;;;;;;5072597;28;20119;-77
2021/12/27 04:08:09;;;;;;;15.15;12.60;;;;;;;;;;5073593;28;20025;-75
2021/12/27 04:10:39;;;;;;;16.10;12.30;;;;;;;;;;5073936;28;20099;-79
2021/12/27 04:13:06;;;;;;;14.07;12.07;;;;;;;;;;5071284;28;20028;-79
2021/12/27 04:15:32;;;;;;;15.73;12.43;;;;;;;;;;5073743;28;20069;-79
2021/12/27 04:17:58;;;;;;;15.07;11.52;;;;;;;;;;5073880;28;20024;-76
2021/12/27 04:20:25;;;;;;;15.18;11.93;;;;;;;;;;5074328;28;20025;-80
2021/12/27 04:22:51;;;;;;;14.30;12.80;;;;;;;;;;5074404;28;20440;-75
2021/12/27 04:25:18;;;;;;;26.95;19.73;;;;;;;;;;5073775;28;20402;-78
2021/12/27 04:27:44;;;;;;;19.35;13.93;;;;;;;;;;5072699;28;20029;-82
2021/12/27 04:30:10;;;;;;;15.73;12.77;;;;;;;;;;5073846;28;20056;-78
2021/12/27 04:32:37;;;;;;;13.57;11.88;;;;;;;;;;5073455;28;20056;-77
2021/12/27 04:35:05;;;;;;;14.68;11.73;;;;;;;;;;5073212;28;20102;-75
2021/12/27 04:37:34;;;;;;;17.17;13.05;;;;;;;;;;5073572;28;20040;-79
2021/12/27 04:40:01;;;;;;;16.42;13.20;;;;;;;;;;5073407;28;20115;-76
2021/12/27 04:42:31;;;;;;;16.27;13.90;;;;;;;;;;5073854;28;20024;-77
2021/12/27 04:44:58;;;;;;;16.13;12.88;;;;;;;;;;5073574;28;20102;-75
2021/12/27 04:47:24;;;;;;;15.07;13.25;;;;;;;;;;5073759;28;20082;-78
2021/12/27 04:49:50;;;;;;;16.23;12.93;;;;;;;;;;5073737;28;20082;-81
2021/12/27 04:52:17;;;;;;;15.13;13.13;;;;;;;;;;5073409;28;20028;-80
2021/12/27 04:54:43;;;;;;;15.07;11.98;;;;;;;;;;5073576;28;20020;-79
2021/12/27 04:57:09;;;;;;;15.90;11.95;;;;;;;;;;5073334;28;20032;-78
2021/12/27 04:59:35;;;;;;;15.20;11.77;;;;;;;;;;5073394;28;20071;-79
2021/12/27 05:02:02;;;;;;;12.52;11.02;;;;;;;;;;5071902;28;20029;-77
2021/12/27 05:04:28;;;;;;;34.40;28.38;;;;;;;;;;5073434;28;20078;-76
2021/12/27 05:06:54;;;;;;;21.77;17.88;;;;;;;;;;5073278;28;20033;-76
2021/12/27 05:09:20;;;;;;;18.10;16.15;;;;;;;;;;5073162;28;20025;-82
2021/12/27 05:11:46;;;;;;;24.33;18.48;;;;;;;;;;5073221;28;20024;-75
2021/12/27 05:14:12;;;;;;;22.67;18.33;;;;;;;;;;5073216;28;20043;-76
2021/12/27 05:16:39;;;;;;;23.55;18.27;;;;;;;;;;5073173;28;20028;-80
2021/12/27 05:19:05;;;;;;;23.35;19.05;;;;;;;;;;5072766;28;20481;-77
2021/12/27 05:21:31;;;;;;;19.65;15.18;;;;;;;;;;5072796;28;20025;-76
2021/12/27 05:23:57;;;;;;;18.88;14.63;;;;;;;;;;5072808;28;20101;-79
2021/12/27 05:26:23;;;;;;;16.38;13.30;;;;;;;;;;5072550;28;20360;-76
2021/12/27 05:28:50;;;;;;;15.40;12.45;;;;;;;;;;5072690;28;20505;-79
2021/12/27 05:31:16;;;;;;;15.48;13.10;;;;;;;;;;5071191;28;20064;-75
2021/12/27 05:33:42;;;;;;;14.70;12.48;;;;;;;;;;5072642;28;20031;-76
2021/12/27 05:36:08;;;;;;;14.32;11.63;;;;;;;;;;5072682;28;20486;-78
2021/12/27 05:38:34;;;;;;;13.68;11.15;;;;;;;;;;5072231;28;20109;-80
2021/12/27 05:41:00;;;;;;;13.93;11.00;;;;;;;;;;5072761;28;20413;-79
2021/12/27 05:43:27;;;;;;;13.52;10.98;;;;;;;;;;5072323;28;20494;-76
2021/12/27 05:45:53;;;;;;;17.65;15.75;;;;;;;;;;5072799;28;20024;-80
2021/12/27 05:48:19;;;;;;;19.80;15.65;;;;;;;;;;5072250;28;20064;-77
2021/12/27 05:50:45;;;;;;;18.13;14.60;;;;;;;;;;5070881;28;20044;-79
2021/12/27 05:53:11;;;;;;;16.65;11.98;;;;;;;;;;5072487;28;20078;-75
2021/12/27 05:55:38;;;;;;;16.42;12.43;;;;;;;;;;5072401;28;20092;-76
2021/12/27 05:58:04;;;;;;;15.65;12.43;;;;;;;;;;5071179;28;20437;-76
2021/12/27 06:00:33;;;;;;;15.68;11.30;;;;;;;;;;5072029;28;20480;-79
2021/12/27 06:02:59;;;;;;;13.75;10.00;;;;;;;;;;5072450;28;20109;-76
2021/12/27 06:05:26;;;;;;;12.18;9.60;;;;;;;;;;5072350;28;20031;-77
2021/12/27 06:07:52;;;;;;;11.55;9.25;;;;;;;;;;5072393;28;20029;-77
2021/12/27 06:10:21;;;;;;;13.23;10.32;;;;;;;;;;5071978;28;20422;-77
2021/12/27 06:12:48;;;;;;;13.70;10.25;;;;;;;;;;5072396;28;20025;-80
2021/12/27 06:15:14;;;;;;;13.93;10.00;;;;;;;;;;5071902;28;20407;-80
2021/12/27 06:17:42;;;;;;;13.20;9.88;;;;;;;;;;5072144;28;20086;-80
2021/12/27 06:20:09;;;;;;;13.88;10.15;;;;;;;;;;5072169;28;20032;-76
2021/12/27 06:22:36;;;;;;;12.68;9.80;;;;;;;;;;5071662;28;20110;-79
2021/12/27 06:25:03;;;;;;;14.40;10.23;;;;;;;;;;5071919;28;20135;-81
2021/12/27 06:27:33;;;;;;;14.65;9.98;;;;;;;;;;5071560;28;20028;-80
2021/12/27 06:30:00;;;;;;;13.50;10.13;;;;;;;;;;5069239;28;20024;-75
2021/12/27 06:32:26;;;;;;;10.65;8.38;;;;;;;;;;5061762;28;20028;-79
2021/12/27 06:34:52;;;;;;;14.27;9.55;;;;;;;;;;5061933;28;20032;-80
2021/12/27 06:37:20;;;;;;;10.75;7.55;;;;;;;;;;5058264;28;20028;-78
2021/12/27 06:39:46;;;;;;;11.07;7.90;;;;;;;;;;5053607;28;20059;-79
2021/12/27 06:42:13;;;;;;;8.80;7.40;;;;;;;;;;5060380;28;20068;-76
2021/12/27 06:44:42;;;;;;;11.35;9.18;;;;;;;;;;5051073;28;20021;-77
2021/12/27 06:47:08;;;;;;;9.45;7.15;;;;;;;;;;5050388;28;20110;-75
2021/12/27 06:49:36;;;;;;;9.73;6.68;;;;;;;;;;5050697;28;20067;-75
2021/12/27 06:52:03;;;;;;;9.27;6.63;;;;;;;;;;5056865;28;20534;-79
2021/12/27 06:54:29;;;;;;;10.45;7.80;;;;;;;;;;5059893;28;20098;-84
2021/12/27 06:56:59;;;;;;;12.27;8.18;;;;;;;;;;5050596;28;20092;-78
2021/12/27 06:59:25;;;;;;;10.90;6.80;;;;;;;;;;5049705;28;20056;-78
2021/12/27 07:01:52;;;;;;;8.77;6.40;;;;;;;;;;5048931;28;20066;-78
2021/12/27 07:04:18;;;;;;;9.60;6.70;;;;;;;;;;5051821;28;20013;-80
2021/12/27 07:06:44;;;;;;;8.02;6.45;;;;;;;;;;5054292;28;20415;-79
2021/12/27 07:09:10;;;;;;;7.82;6.55;;;;;;;;;;5054140;28;20101;-83
2021/12/27 07:11:36;;;;;;;7.93;6.60;;;;;;;;;;5054909;28;20139;-77
2021/12/27 07:14:05;;;;;;;8.77;6.78;;;;;;;;;;5071609;28;20122;-77
2021/12/27 07:16:31;;;;;;;12.15;6.82;;;;;;;;;;5060013;28;20029;-78
2021/12/27 07:18:57;;;;;;;12.40;7.95;;;;;;;;;;5053985;28;20041;-79
2021/12/27 07:21:23;;;;;;;8.85;6.50;;;;;;;;;;5064000;28;20052;-80
2021/12/27 07:23:50;;;;;;;9.70;6.97;;;;;;;;;;5054056;28;20056;-76
2021/12/27 07:26:16;;;;;;;9.73;7.07;;;;;;;;;;5054090;28;20140;-75
2021/12/27 07:31:27;;;;;;;12.63;6.75;;;;;;;;;;5064014;28;20052;-76
2021/12/27 07:33:54;;;;;;;18.83;12.10;;;;;;;;;;5053690;28;20025;-76
2021/12/27 07:36:20;;;;;;;27.23;17.40;;;;;;;;;;5053602;28;20469;-79
2021/12/27 07:38:46;;;;;;;17.40;12.30;;;;;;;;;;5053593;28;20037;-76
2021/12/27 07:41:12;;;;;;;22.35;13.48;;;;;;;;;;5064818;28;20040;-82
2021/12/27 07:43:39;;;;;;;15.13;10.57;;;;;;;;;;5053293;28;20048;-79
2021/12/27 07:46:05;;;;;;;13.30;8.85;;;;;;;;;;5053531;28;20821;-78
2021/12/27 07:48:33;;;;;;;10.90;7.72;;;;;;;;;;5053849;28;20032;-86
2021/12/27 07:51:05;;;;;;;13.68;11.25;;;;;;;;;;5063572;28;20048;-81
2021/12/27 07:53:32;;;;;;;13.63;8.63;;;;;;;;;;5053096;28;20082;-81
2021/12/27 07:55:58;;;;;;;9.13;6.40;;;;;;;;;;5053630;28;20033;-80
2021/12/27 07:58:24;;;;;;;9.52;6.60;;;;;;;;;;5053142;28;20039;-79
2021/12/27 08:00:52;;;;;;;9.35;6.90;;;;;;;;;;5060524;28;20387;-82
2021/12/27 08:03:20;;;;;;;9.23;6.32;;;;;;;;;;5062526;28;20032;-76
2021/12/27 08:05:48;;;;;;;32.78;22.17;;;;;;;;;;5052878;28;20039;-79
2021/12/27 08:08:14;;;;;;;10.32;7.60;;;;;;;;;;5054069;28;20365;-76
2021/12/27 08:10:41;;;;;;;6.57;5.15;;;;;;;;;;5060882;28;20108;-81
2021/12/27 08:13:08;;;;;;;7.38;5.45;;;;;;;;;;5052937;28;20081;-80
2021/12/27 08:15:34;;;;;;;9.15;6.53;;;;;;;;;;5052530;28;20108;-74
2021/12/27 08:18:00;;;;;;;8.30;5.60;;;;;;;;;;5052818;28;20117;-79
2021/12/27 08:20:26;;;;;;;8.60;5.25;;;;;;;;;;5061838;28;20073;-76
2021/12/27 08:22:52;;;;;;;8.18;4.57;;;;;;;;;;5052404;28;20551;-80
2021/12/27 08:25:18;;;;;;;7.57;4.95;;;;;;;;;;5052895;28;20061;-77
2021/12/27 08:27:46;;;;;;;7.35;4.82;;;;;;;;;;5052213;28;20105;-77
2021/12/27 08:30:12;;;;;;;10.00;5.20;;;;;;;;;;5054314;28;20558;-81
2021/12/27 08:32:40;;;;;;;6.45;5.43;;;;;;;;;;5061756;28;20074;-78
2021/12/27 08:35:07;;;;;;;7.05;5.00;;;;;;;;;;5051000;28;20444;-78
2021/12/27 08:37:33;;;;;;;9.48;6.90;;;;;;;;;;5052675;28;20504;-80
2021/12/27 08:40:00;;;;;;;8.60;5.30;;;;;;;;;;5060442;28;20041;-77
2021/12/27 08:42:26;;;;;;;8.95;5.03;;;;;;;;;;5052636;28;20420;-80
2021/12/27 08:44:53;;;;;;;7.10;4.63;;;;;;;;;;5052338;28;20104;-76
2021/12/27 08:47:20;;;;;;;20.30;14.38;;;;;;;;;;5052042;28;20473;-74
2021/12/27 08:49:46;;;;;;;22.48;14.68;;;;;;;;;;5060958;28;20028;-79
2021/12/27 08:52:12;;;;;;;10.38;6.45;;;;;;;;;;5052111;28;20477;-80
2021/12/27 08:54:38;;;;;;;7.47;5.15;;;;;;;;;;5053844;28;20567;-82
2021/12/27 08:57:05;;;;;;;8.40;5.50;;;;;;;;;;5062148;28;20054;-80
2021/12/27 08:59:35;;;;;;;6.53;5.30;;;;;;;;;;5070583;28;20040;-79
2021/12/27 09:02:01;;;;;;;9.45;7.53;;;;;;;;;;5053841;28;20037;-83
2021/12/27 09:04:27;;;;;;;6.95;5.55;;;;;;;;;;5064688;28;20021;-80
2021/12/27 09:06:53;;;;;;;7.53;5.35;;;;;;;;;;5058018;28;20051;-77
2021/12/27 09:09:21;;;;;;;5.82;4.90;;;;;;;;;;5051684;28;20384;-83
2021/12/27 09:11:47;;;;;;;7.38;4.82;;;;;;;;;;5049777;28;20161;-80
2021/12/27 09:14:14;;;;;;;9.48;5.35;;;;;;;;;;5063770;28;20372;-77
2021/12/27 09:16:40;;;;;;;23.02;15.30;;;;;;;;;;5051751;28;20079;-82
2021/12/27 09:19:07;;;;;;;10.88;7.50;;;;;;;;;;5050033;28;20048;-75
2021/12/27 09:21:33;;;;;;;19.52;12.55;;;;;;;;;;5051527;28;20211;-76
2021/12/27 09:23:59;;;;;;;8.82;6.18;;;;;;;;;;5065109;28;20734;-73
2021/12/27 09:26:25;;;;;;;10.52;7.00;;;;;;;;;;5050414;28;20144;-75
2021/12/27 09:28:52;;;;;;;9.02;5.70;;;;;;;;;;5063673;28;20098;-79
2021/12/27 09:31:18;;;;;;;6.97;5.28;;;;;;;;;;5057989;28;20033;-76
2021/12/27 09:33:45;;;;;;;9.55;6.15;;;;;;;;;;5064983;28;20044;-80
2021/12/27 09:36:11;;;;;;;8.85;5.50;;;;;;;;;;5050501;28;20029;-80
2021/12/27 09:38:41;;;;;;;19.50;13.57;;;;;;;;;;5049940;28;20486;-77
2021/12/27 09:41:07;;;;;;;8.68;6.63;;;;;;;;;;5057791;28;20455;-82
2021/12/27 09:46:33;;;;;;;10.13;5.75;;;;;;;;;;5051019;28;20044;-77
2021/12/27 09:49:01;;;;;;;13.95;10.35;;;;;;;;;;5050814;28;20021;-75
2021/12/27 09:51:28;;;;;;;8.40;5.63;;;;;;;;;;5051251;28;20028;-83
2021/12/27 09:53:54;;;;;;;6.93;5.63;;;;;;;;;;5066255;28;20395;-76
2021/12/27 09:56:23;;;;;;;8.02;5.18;;;;;;;;;;5050913;28;20033;-79
2021/12/27 09:58:49;;;;;;;9.00;5.13;;;;;;;;;;5050856;28;20453;-80
2021/12/27 10:01:16;;;;;;;14.00;9.27;;;;;;;;;;5057770;28;20476;-79
2021/12/27 10:03:54;;;;;;;8.68;5.63;;;;;;;;;;5065966;28;20387;-80
2021/12/27 10:06:24;;;;;;;10.27;7.18;;;;;;;;;;5050723;28;20082;-79
2021/12/27 10:08:51;;;;;;;7.47;5.47;;;;;;;;;;5056852;28;20056;-77
2021/12/27 10:11:21;;;;;;;7.72;5.78;;;;;;;;;;5061601;28;20437;-79
2021/12/27 10:14:03;;;;;;;19.38;14.45;;;;;;;;;;5068940;28;20025;-75
2021/12/27 10:16:48;;;;;;;10.13;8.25;;;;;;;;;;5050475;28;20104;-77
2021/12/27 10:19:16;;;;;;;8.15;6.20;;;;;;;;;;5054469;28;20376;-81
2021/12/27 10:21:46;;;;;;;11.02;5.93;;;;;;;;;;5057499;28;20810;-78
2021/12/27 10:24:31;;;;;;;12.35;4.85;;;;;;;;;;5050730;28;20063;-76
2021/12/27 10:27:01;;;;;;;7.40;5.05;;;;;;;;;;5051769;28;20017;-77
2021/12/27 10:29:28;;;;;;;19.27;12.70;;;;;;;;;;5058207;28;20039;-75
2021/12/27 10:31:54;;;;;;;13.02;8.68;;;;;;;;;;5058715;28;20027;-76
2021/12/27 10:34:21;;;;;;;12.57;8.43;;;;;;;;;;5052558;28;20029;-79
2021/12/27 10:37:05;;;;;;;9.25;6.05;;;;;;;;;;5059559;28;20029;-79
2021/12/27 10:39:50;;;;;;;7.80;5.18;;;;;;;;;;5060090;28;20071;-79
2021/12/27 10:42:22;;;;;;;31.23;20.05;;;;;;;;;;5063957;28;20108;-78
2021/12/27 10:44:49;;;;;;;7.65;4.80;;;;;;;;;;5053542;28;20147;-79
2021/12/27 10:47:24;;;;;;;6.97;4.60;;;;;;;;;;5054038;28;20025;-79
2021/12/27 10:49:50;;;;;;;6.22;4.55;;;;;;;;;;5062681;28;20028;-80
2021/12/27 10:52:28;;;;;;;;;;;;;;;;;;;;;
2021/12/27 10:55:13;;;;;;;8.50;5.30;;;;;;;;;;5055503;28;20017;-79
2021/12/27 10:57:39;;;;;;;7.90;5.47;;;;;;;;;;5053242;28;20471;-81
2021/12/27 11:00:14;;;;;;;10.93;6.30;;;;;;;;;;5063936;28;20051;-81
2021/12/27 11:02:40;;;;;;;10.23;7.35;;;;;;;;;;5072378;28;20075;-77
2021/12/27 11:05:14;;;;;;;10.88;5.68;;;;;;;;;;5067403;28;20044;-78
2021/12/27 11:07:41;;;;;;;38.45;31.20;;;;;;;;;;5071007;28;20499;-79
2021/12/27 11:10:08;;;;;;;42.63;30.65;;;;;;;;;;5059448;28;20040;-79
2021/12/27 11:12:36;;;;;;;18.30;12.13;;;;;;;;;;5053642;28;20403;-82
2021/12/27 11:15:03;;;;;;;13.70;8.57;;;;;;;;;;5052639;28;20027;-78
2021/12/27 11:17:33;;;;;;;48.50;37.17;;;;;;;;;;5053680;28;20036;-80
2021/12/27 11:20:07;;;;;;;37.90;28.50;;;;;;;;;;5053842;28;20436;-81
2021/12/27 11:22:42;;;;;;;11.52;6.00;;;;;;;;;;5068852;28;20044;-77
2021/12/27 11:25:19;;;;;;;8.00;5.40;;;;;;;;;;5060925;28;20132;-75
2021/12/27 11:27:45;;;;;;;7.85;5.53;;;;;;;;;;5070668;28;20029;-81
2021/12/27 11:30:22;;;;;;;9.88;5.30;;;;;;;;;;5070742;28;20649;-82
2021/12/27 11:33:09;;;;;;;8.70;4.90;;;;;;;;;;5070549;28;20035;-84
2021/12/27 11:36:01;;;;;;;17.15;14.95;;;;;;;;;;5070662;28;20067;-79
2021/12/27 11:38:41;;;;;;;9.20;4.78;;;;;;;;;;5067269;28;20035;-82
2021/12/27 11:41:26;;;;;;;7.82;3.50;;;;;;;;;;5071908;28;20109;-78
2021/12/27 11:43:56;;;;;;;10.25;4.00;;;;;;;;;;5070158;28;20032;-77
2021/12/27 11:46:23;;;;;;;5.90;3.60;;;;;;;;;;5071360;28;20066;-79
2021/12/27 11:48:50;;;;;;;10.85;4.68;;;;;;;;;;5069462;28;20413;-83
2021/12/27 11:51:21;;;;;;;7.05;4.95;;;;;;;;;;5057401;28;20079;-83
2021/12/27 11:53:52;;;;;;;8.18;4.05;;;;;;;;;;5063443;28;20036;-77
2021/12/27 11:56:42;;;;;;;8.95;5.88;;;;;;;;;;5068015;28;20048;-81
2021/12/27 11:59:27;;;;;;;7.30;4.53;;;;;;;;;;5051368;28;20033;-81
2021/12/27 12:01:53;;;;;;;;;;;;;;;;;;5062404;28;20052;-83
2021/12/27 12:04:37;;;;;;;10.98;6.03;;;;;;;;;;5059488;28;19943;-81
2021/12/27 12:07:07;;;;;;;6.47;4.38;;;;;;;;;;5052310;28;20075;-80
2021/12/27 12:09:44;;;;;;;11.27;6.40;;;;;;;;;;5055465;28;20033;-80
2021/12/27 12:12:12;;;;;;;14.15;9.50;;;;;;;;;;5060142;28;20025;-83
2021/12/27 12:14:40;;;;;;;9.40;5.63;;;;;;;;;;5052630;28;20388;-77
2021/12/27 12:17:13;;;;;;;7.63;4.43;;;;;;;;;;5052140;28;20036;-79
2021/12/27 12:19:58;;;;;;;10.05;8.10;;;;;;;;;;5057264;28;20442;-81
2021/12/27 12:22:24;;;;;;;;;;;;;;;;;;5060175;28;20033;-85
2021/12/27 12:25:04;;;;;;;15.88;9.48;;;;;;;;;;5068568;28;19947;-84
2021/12/27 12:27:30;;;;;;;7.93;4.72;;;;;;;;;;5067092;28;20029;-75
2021/12/27 12:29:57;;;;;;;7.03;4.28;;;;;;;;;;5058195;28;20403;-79
2021/12/27 12:32:23;;;;;;;7.80;5.07;;;;;;;;;;5060554;28;20055;-78
2021/12/27 12:34:52;;;;;;;8.25;5.07;;;;;;;;;;5052802;28;20036;-80
2021/12/27 12:37:19;;;;;;;8.05;4.88;;;;;;;;;;5056092;28;20103;-76
2021/12/27 12:39:48;;;;;;;10.10;6.30;;;;;;;;;;5072246;28;20150;-82
2021/12/27 12:42:16;;;;;;;18.77;12.05;;;;;;;;;;5062895;28;20025;-79
2021/12/27 12:45:02;;;;;;;21.02;14.25;;;;;;;;;;5059248;28;20033;-80
2021/12/27 12:47:38;;;;;;;7.63;5.50;;;;;;;;;;5052465;28;20047;-78
2021/12/27 12:50:12;;;;;;;33.38;23.52;;;;;;;;;;5053662;28;20422;-79
2021/12/27 12:52:47;;;;;;;8.68;4.45;;;;;;;;;;5071973;28;20024;-82
2021/12/27 12:58:01;;;;;;;6.55;3.90;;;;;;;;;;5052942;28;20083;-74
2021/12/27 13:00:45;;;;;;;7.28;4.68;;;;;;;;;;5053431;28;20048;-79
2021/12/27 13:03:15;;;;;;;9.00;3.95;;;;;;;;;;5053167;28;20052;-77
2021/12/27 13:05:41;;;;;;;7.40;4.28;;;;;;;;;;5052748;28;20036;-82
2021/12/27 13:08:11;;;;;;;11.70;8.75;;;;;;;;;;5052592;28;20487;-75
2021/12/27 13:10:39;;;;;;;16.83;9.70;;;;;;;;;;5052695;28;20025;-75
2021/12/27 13:13:15;;;;;;;11.35;7.50;;;;;;;;;;5052995;28;20115;-77
2021/12/27 13:16:02;;;;;;;9.57;5.45;;;;;;;;;;5053366;28;20025;-83
2021/12/27 13:18:29;;;;;;;9.07;5.43;;;;;;;;;;5054765;28;20021;-79
2021/12/27 13:21:00;;;;;;;7.40;5.35;;;;;;;;;;5060190;28;20032;-80
2021/12/27 13:23:28;;;;;;;8.35;4.45;;;;;;;;;;5054055;28;20036;-83
2021/12/27 13:25:58;;;;;;;7.82;5.38;;;;;;;;;;5051699;28;20047;-81
2021/12/27 13:28:33;;;;;;;11.98;6.95;;;;;;;;;;5052092;28;20479;-78
2021/12/27 13:31:07;;;;;;;12.32;7.53;;;;;;;;;;5063061;28;20059;-77
2021/12/27 13:33:42;;;;;;;11.20;9.10;;;;;;;;;;5062890;28;20033;-78
2021/12/27 13:36:27;;;;;;;11.77;6.78;;;;;;;;;;5064966;28;20037;-84
2021/12/27 13:38:59;;;;;;;10.60;5.95;;;;;;;;;;5069330;28;20146;-80
2021/12/27 13:41:27;;;;;;;9.02;5.28;;;;;;;;;;5062746;28;20067;-78
2021/12/27 13:43:55;;;;;;;9.43;5.97;;;;;;;;;;5063765;28;20024;-76
2021/12/27 13:46:23;;;;;;;7.43;5.72;;;;;;;;;;5062475;28;20722;-84
2021/12/27 13:48:50;;;;;;;9.07;5.72;;;;;;;;;;5059860;28;20548;-79
2021/12/27 13:51:35;;;;;;;7.72;5.70;;;;;;;;;;5052191;28;20099;-78
2021/12/27 13:54:03;;;;;;;20.88;14.27;;;;;;;;;;5056441;28;20032;-77
2021/12/27 13:56:33;;;;;;;10.82;6.72;;;;;;;;;;5072035;28;20024;-77
2021/12/27 13:59:22;;;;;;;12.52;9.70;;;;;;;;;;5071250;28;20634;-76
2021/12/27 14:01:55;;;;;;;7.97;6.57;;;;;;;;;;5071909;28;20020;-75
2021/12/27 14:04:22;;;;;;;11.23;5.85;;;;;;;;;;5072112;28;20056;-81
2021/12/27 14:06:49;;;;;;;8.23;5.95;;;;;;;;;;5072449;28;20103;-83
2021/12/27 14:09:22;;;;;;;12.38;7.82;;;;;;;;;;5072727;28;20029;-78
2021/12/27 14:11:51;;;;;;;21.17;7.50;;;;;;;;;;5070259;28;20444;-84
2021/12/27 14:14:36;;;;;;;7.55;5.78;;;;;;;;;;5072155;28;20264;-81
2021/12/27 14:17:21;;;;;;;14.55;6.15;;;;;;;;;;5072081;28;20031;-82
2021/12/27 14:20:04;;;;;;;12.20;7.38;;;;;;;;;;5072373;28;20113;-78
2021/12/27 14:22:49;;;;;;;9.35;6.13;;;;;;;;;;5070994;28;20488;-82
2021/12/27 14:25:20;;;;;;;7.50;5.82;;;;;;;;;;5070447;28;20045;-80
2021/12/27 14:27:50;;;;;;;8.15;5.90;;;;;;;;;;5072092;28;20426;-85
2021/12/27 14:30:19;;;;;;;13.52;10.10;;;;;;;;;;5070392;28;20024;-82
2021/12/27 14:32:45;;;;;;;9.00;6.72;;;;;;;;;;5070711;28;20059;-81
2021/12/27 14:35:20;;;;;;;11.52;6.35;;;;;;;;;;5072082;28;20028;-78
2021/12/27 14:37:46;;;;;;;;;;;;;;;;;;5071758;28;20063;-81
2021/12/27 14:40:12;;;;;;;11.05;5.78;;;;;;;;;;5071902;28;20375;-85
2021/12/27 14:42:38;;;;;;;10.90;5.78;;;;;;;;;;5072050;28;20036;-87
2021/12/27 14:45:07;;;;;;;9.55;5.68;;;;;;;;;;5070303;28;20356;-80
2021/12/27 14:47:35;;;;;;;9.00;5.95;;;;;;;;;;5070925;28;20036;-83
2021/12/27 14:50:01;;;;;;;8.25;6.00;;;;;;;;;;5072199;28;20422;-85